sensor_id;sensor_type;location;lat;lon;timestamp;pressure;altitude;pressure_sealevel;temperature;humidity
58668;BME280;59852;43.086;25.634;2023-06-19T00:02:24;98733.94;;;18.09;99.41
58668;BME280;59852;43.086;25.634;2023-06-19T00:04:49;98732.13;;;18.10;99.30
58668;BME280;59852;43.086;25.634;2023-06-19T00:07:14;98727.75;;;18.26;98.75
58668;BME280;59852;43.086;25.634;2023-06-19T00:09:40;98729.25;;;18.29;98.32
58668;BME280;59852;43.086;25.634;2023-06-19T00:12:05;98733.25;;;18.33;98.24
58668;BME280;59852;43.086;25.634;2023-06-19T00:14:30;98730.56;;;18.25;98.29
58668;BME280;59852;43.086;25.634;2023-06-19T00:16:56;98737.00;;;18.22;98.20
58668;BME280;59852;43.086;25.634;2023-06-19T00:19:21;98734.25;;;18.06;98.76
58668;BME280;59852;43.086;25.634;2023-06-19T00:21:47;98730.88;;;17.96;99.29
58668;BME280;59852;43.086;25.634;2023-06-19T00:24:13;98736.22;;;18.04;98.59
58668;BME280;59852;43.086;25.634;2023-06-19T00:26:38;98730.28;;;18.02;98.70
58668;BME280;59852;43.086;25.634;2023-06-19T00:29:03;98742.13;;;17.90;99.59
58668;BME280;59852;43.086;25.634;2023-06-19T00:31:29;98733.69;;;17.94;99.52
58668;BME280;59852;43.086;25.634;2023-06-19T00:33:54;98733.97;;;17.83;99.46
58668;BME280;59852;43.086;25.634;2023-06-19T00:36:20;98731.97;;;17.85;98.67
58668;BME280;59852;43.086;25.634;2023-06-19T00:38:46;98733.91;;;18.01;97.96
58668;BME280;59852;43.086;25.634;2023-06-19T00:41:12;98735.91;;;18.07;97.63
58668;BME280;59852;43.086;25.634;2023-06-19T00:43:37;98740.78;;;18.20;96.44
58668;BME280;59852;43.086;25.634;2023-06-19T00:46:03;98745.97;;;18.29;95.70
58668;BME280;59852;43.086;25.634;2023-06-19T00:48:29;98749.56;;;18.20;96.66
58668;BME280;59852;43.086;25.634;2023-06-19T00:50:58;98746.34;;;18.09;96.86
58668;BME280;59852;43.086;25.634;2023-06-19T00:53:23;98742.84;;;18.08;97.20
58668;BME280;59852;43.086;25.634;2023-06-19T00:55:49;98741.69;;;18.02;96.87
58668;BME280;59852;43.086;25.634;2023-06-19T00:58:17;98741.38;;;18.05;97.17
58668;BME280;59852;43.086;25.634;2023-06-19T01:00:42;98744.69;;;18.08;96.62
58668;BME280;59852;43.086;25.634;2023-06-19T01:03:07;98742.25;;;18.14;96.11
58668;BME280;59852;43.086;25.634;2023-06-19T01:05:33;98735.56;;;18.02;96.00
58668;BME280;59852;43.086;25.634;2023-06-19T01:08:03;98741.41;;;18.14;95.84
58668;BME280;59852;43.086;25.634;2023-06-19T01:10:43;98742.50;;;18.03;96.10
58668;BME280;59852;43.086;25.634;2023-06-19T01:13:15;98738.88;;;18.04;95.40
58668;BME280;59852;43.086;25.634;2023-06-19T01:15:42;98736.34;;;17.94;95.59
58668;BME280;59852;43.086;25.634;2023-06-19T01:18:07;98734.53;;;17.95;95.58
58668;BME280;59852;43.086;25.634;2023-06-19T01:20:36;98731.53;;;17.90;95.65
58668;BME280;59852;43.086;25.634;2023-06-19T01:23:08;98723.34;;;18.09;94.43
58668;BME280;59852;43.086;25.634;2023-06-19T01:25:34;98740.84;;;18.02;94.42
58668;BME280;59852;43.086;25.634;2023-06-19T01:28:00;98739.00;;;17.94;94.61
58668;BME280;59852;43.086;25.634;2023-06-19T01:30:27;98737.34;;;17.93;94.67
58668;BME280;59852;43.086;25.634;2023-06-19T01:33:00;98730.38;;;17.92;94.38
58668;BME280;59852;43.086;25.634;2023-06-19T01:35:31;98735.34;;;17.95;94.23
58668;BME280;59852;43.086;25.634;2023-06-19T01:37:57;98737.78;;;17.89;94.36
58668;BME280;59852;43.086;25.634;2023-06-19T01:40:25;98732.72;;;17.95;93.40
58668;BME280;59852;43.086;25.634;2023-06-19T01:42:51;98731.75;;;18.04;93.55
58668;BME280;59852;43.086;25.634;2023-06-19T01:45:17;98729.69;;;18.16;92.03
58668;BME280;59852;43.086;25.634;2023-06-19T01:47:42;98739.19;;;18.01;91.93
58668;BME280;59852;43.086;25.634;2023-06-19T01:50:08;98737.53;;;18.00;91.76
58668;BME280;59852;43.086;25.634;2023-06-19T01:52:34;98737.72;;;18.06;89.98
58668;BME280;59852;43.086;25.634;2023-06-19T01:54:59;98745.56;;;18.16;89.19
58668;BME280;59852;43.086;25.634;2023-06-19T01:57:24;98741.50;;;17.78;89.58
58668;BME280;59852;43.086;25.634;2023-06-19T01:59:51;98745.06;;;17.87;89.65
58668;BME280;59852;43.086;25.634;2023-06-19T02:02:16;98750.09;;;17.54;91.34
58668;BME280;59852;43.086;25.634;2023-06-19T02:04:41;98752.78;;;17.62;90.80
58668;BME280;59852;43.086;25.634;2023-06-19T02:07:07;98744.19;;;17.60;90.04
58668;BME280;59852;43.086;25.634;2023-06-19T02:09:32;98752.06;;;17.34;91.42
58668;BME280;59852;43.086;25.634;2023-06-19T02:11:57;98754.78;;;17.25;92.78
58668;BME280;59852;43.086;25.634;2023-06-19T02:14:22;98759.75;;;17.45;91.99
58668;BME280;59852;43.086;25.634;2023-06-19T02:16:48;98758.09;;;17.27;92.65
58668;BME280;59852;43.086;25.634;2023-06-19T02:19:13;98758.63;;;17.30;91.82
58668;BME280;59852;43.086;25.634;2023-06-19T02:21:38;98759.41;;;17.23;92.58
58668;BME280;59852;43.086;25.634;2023-06-19T02:24:04;98759.00;;;17.17;92.73
58668;BME280;59852;43.086;25.634;2023-06-19T02:26:30;98757.34;;;17.16;93.01
58668;BME280;59852;43.086;25.634;2023-06-19T02:28:56;98762.84;;;17.05;93.66
58668;BME280;59852;43.086;25.634;2023-06-19T02:31:21;98758.25;;;17.07;93.30
58668;BME280;59852;43.086;25.634;2023-06-19T02:33:47;98766.34;;;17.24;93.15
58668;BME280;59852;43.086;25.634;2023-06-19T02:36:13;98776.84;;;17.33;91.70
58668;BME280;59852;43.086;25.634;2023-06-19T02:38:38;98772.91;;;17.19;92.48
58668;BME280;59852;43.086;25.634;2023-06-19T02:41:03;98785.06;;;17.30;92.27
58668;BME280;59852;43.086;25.634;2023-06-19T02:43:29;98784.78;;;17.51;91.25
58668;BME280;59852;43.086;25.634;2023-06-19T02:45:54;98775.22;;;17.58;90.32
58668;BME280;59852;43.086;25.634;2023-06-19T02:48:20;98780.00;;;17.55;88.69
58668;BME280;59852;43.086;25.634;2023-06-19T02:50:45;98784.47;;;17.72;85.87
58668;BME280;59852;43.086;25.634;2023-06-19T02:53:10;98785.53;;;17.61;87.74
58668;BME280;59852;43.086;25.634;2023-06-19T02:55:36;98785.16;;;17.74;86.38
58668;BME280;59852;43.086;25.634;2023-06-19T02:58:01;98786.72;;;17.85;85.32
58668;BME280;59852;43.086;25.634;2023-06-19T03:00:26;98778.09;;;17.65;86.75
58668;BME280;59852;43.086;25.634;2023-06-19T03:02:53;98778.25;;;17.63;87.71
58668;BME280;59852;43.086;25.634;2023-06-19T03:05:19;98780.31;;;17.69;88.08
58668;BME280;59852;43.086;25.634;2023-06-19T03:07:45;98774.13;;;17.61;86.91
58668;BME280;59852;43.086;25.634;2023-06-19T03:10:10;98778.34;;;17.54;87.61
58668;BME280;59852;43.086;25.634;2023-06-19T03:12:35;98773.50;;;17.49;87.76
58668;BME280;59852;43.086;25.634;2023-06-19T03:15:01;98777.13;;;17.66;88.15
58668;BME280;59852;43.086;25.634;2023-06-19T03:17:26;98777.75;;;17.42;89.54
58668;BME280;59852;43.086;25.634;2023-06-19T03:19:51;98778.34;;;17.54;89.56
58668;BME280;59852;43.086;25.634;2023-06-19T03:22:17;98769.78;;;17.60;89.57
58668;BME280;59852;43.086;25.634;2023-06-19T03:24:42;98771.81;;;17.66;89.86
58668;BME280;59852;43.086;25.634;2023-06-19T03:27:08;98770.84;;;17.49;90.21
58668;BME280;59852;43.086;25.634;2023-06-19T03:29:33;98761.34;;;17.56;89.46
58668;BME280;59852;43.086;25.634;2023-06-19T03:31:58;98765.78;;;17.56;89.63
58668;BME280;59852;43.086;25.634;2023-06-19T03:34:24;98771.00;;;17.47;90.23
58668;BME280;59852;43.086;25.634;2023-06-19T03:36:50;98773.50;;;17.49;89.79
58668;BME280;59852;43.086;25.634;2023-06-19T03:39:15;98771.69;;;17.49;89.96
58668;BME280;59852;43.086;25.634;2023-06-19T03:41:40;98775.03;;;17.52;90.50
58668;BME280;59852;43.086;25.634;2023-06-19T03:44:06;98778.53;;;17.70;89.20
58668;BME280;59852;43.086;25.634;2023-06-19T03:46:31;98776.19;;;17.93;88.27
58668;BME280;59852;43.086;25.634;2023-06-19T03:48:56;98778.63;;;18.12;87.80
58668;BME280;59852;43.086;25.634;2023-06-19T03:51:22;98779.75;;;18.35;87.28
58668;BME280;59852;43.086;25.634;2023-06-19T03:53:47;98784.88;;;18.37;87.18
58668;BME280;59852;43.086;25.634;2023-06-19T03:56:12;98786.25;;;18.41;88.35
58668;BME280;59852;43.086;25.634;2023-06-19T03:58:38;98788.41;;;18.46;87.91
58668;BME280;59852;43.086;25.634;2023-06-19T04:01:03;98782.94;;;18.73;86.74
58668;BME280;59852;43.086;25.634;2023-06-19T04:03:30;98776.38;;;18.94;86.12
58668;BME280;59852;43.086;25.634;2023-06-19T04:05:55;98778.22;;;19.01;85.43
58668;BME280;59852;43.086;25.634;2023-06-19T04:08:21;98778.06;;;19.11;84.65
58668;BME280;59852;43.086;25.634;2023-06-19T04:10:46;98782.41;;;19.20;84.13
58668;BME280;59852;43.086;25.634;2023-06-19T04:13:12;98781.06;;;19.24;82.94
58668;BME280;59852;43.086;25.634;2023-06-19T04:15:37;98788.84;;;19.09;80.91
58668;BME280;59852;43.086;25.634;2023-06-19T04:18:03;98781.88;;;19.16;80.30
58668;BME280;59852;43.086;25.634;2023-06-19T04:20:28;98784.06;;;19.21;82.59
58668;BME280;59852;43.086;25.634;2023-06-19T04:22:54;98777.13;;;19.44;82.96
58668;BME280;59852;43.086;25.634;2023-06-19T04:25:19;98783.59;;;19.50;82.85
58668;BME280;59852;43.086;25.634;2023-06-19T04:27:44;98775.84;;;19.57;81.44
58668;BME280;59852;43.086;25.634;2023-06-19T04:30:10;98780.66;;;19.69;80.68
58668;BME280;59852;43.086;25.634;2023-06-19T04:32:36;98781.13;;;19.97;78.79
58668;BME280;59852;43.086;25.634;2023-06-19T04:35:08;98779.81;;;19.61;76.69
58668;BME280;59852;43.086;25.634;2023-06-19T04:37:33;98782.63;;;19.59;76.92
58668;BME280;59852;43.086;25.634;2023-06-19T04:39:59;98781.38;;;19.05;79.00
58668;BME280;59852;43.086;25.634;2023-06-19T04:42:24;98781.09;;;19.40;79.75
58668;BME280;59852;43.086;25.634;2023-06-19T04:44:51;98781.31;;;19.88;78.78
58668;BME280;59852;43.086;25.634;2023-06-19T04:47:17;98782.13;;;19.96;78.75
58668;BME280;59852;43.086;25.634;2023-06-19T04:49:42;98780.91;;;20.15;78.29
58668;BME280;59852;43.086;25.634;2023-06-19T04:52:08;98785.28;;;19.92;78.66
58668;BME280;59852;43.086;25.634;2023-06-19T04:54:33;98792.09;;;19.78;79.35
58668;BME280;59852;43.086;25.634;2023-06-19T04:56:59;98794.75;;;19.62;79.99
58668;BME280;59852;43.086;25.634;2023-06-19T04:59:24;98795.75;;;19.61;79.68
58668;BME280;59852;43.086;25.634;2023-06-19T05:01:50;98799.88;;;19.88;78.62
58668;BME280;59852;43.086;25.634;2023-06-19T05:04:19;98799.72;;;19.97;79.77
58668;BME280;59852;43.086;25.634;2023-06-19T05:06:44;98800.72;;;19.88;80.91
58668;BME280;59852;43.086;25.634;2023-06-19T05:09:09;98790.31;;;20.34;78.32
58668;BME280;59852;43.086;25.634;2023-06-19T05:11:36;98788.66;;;20.33;77.15
58668;BME280;59852;43.086;25.634;2023-06-19T05:14:01;98792.50;;;20.39;76.69
58668;BME280;59852;43.086;25.634;2023-06-19T05:16:26;98791.81;;;20.45;75.77
58668;BME280;59852;43.086;25.634;2023-06-19T05:18:52;98790.06;;;20.76;74.38
58668;BME280;59852;43.086;25.634;2023-06-19T05:21:17;98784.56;;;20.78;72.66
58668;BME280;59852;43.086;25.634;2023-06-19T05:23:42;98782.94;;;21.00;72.24
58668;BME280;59852;43.086;25.634;2023-06-19T05:26:08;98787.28;;;21.24;71.89
58668;BME280;59852;43.086;25.634;2023-06-19T05:28:33;98794.84;;;21.12;71.63
58668;BME280;59852;43.086;25.634;2023-06-19T05:30:58;98781.50;;;20.89;73.34
58668;BME280;59852;43.086;25.634;2023-06-19T05:33:24;98784.59;;;20.70;72.40
58668;BME280;59852;43.086;25.634;2023-06-19T05:35:49;98779.66;;;20.98;72.38
58668;BME280;59852;43.086;25.634;2023-06-19T05:38:20;98790.06;;;21.07;70.67
58668;BME280;59852;43.086;25.634;2023-06-19T05:40:46;98776.16;;;20.97;70.13
58668;BME280;59852;43.086;25.634;2023-06-19T05:43:11;98787.59;;;20.67;70.60
58668;BME280;59852;43.086;25.634;2023-06-19T05:45:37;98794.22;;;20.71;73.53
58668;BME280;59852;43.086;25.634;2023-06-19T05:48:02;98791.19;;;21.13;73.12
58668;BME280;59852;43.086;25.634;2023-06-19T05:50:28;98791.19;;;21.13;75.46
58668;BME280;59852;43.086;25.634;2023-06-19T05:52:53;98791.84;;;21.15;70.36
58668;BME280;59852;43.086;25.634;2023-06-19T05:55:18;98796.34;;;21.45;68.16
58668;BME280;59852;43.086;25.634;2023-06-19T05:57:44;98794.50;;;21.15;68.66
58668;BME280;59852;43.086;25.634;2023-06-19T06:00:09;98787.94;;;21.34;67.22
58668;BME280;59852;43.086;25.634;2023-06-19T06:02:39;98788.41;;;21.06;66.25
58668;BME280;59852;43.086;25.634;2023-06-19T06:05:05;98787.03;;;21.41;66.86
58668;BME280;59852;43.086;25.634;2023-06-19T06:07:30;98792.84;;;21.45;66.57
58668;BME280;59852;43.086;25.634;2023-06-19T06:09:56;98785.81;;;21.21;66.36
58668;BME280;59852;43.086;25.634;2023-06-19T06:12:21;98790.13;;;21.22;66.38
58668;BME280;59852;43.086;25.634;2023-06-19T06:14:46;98784.31;;;21.27;65.16
58668;BME280;59852;43.086;25.634;2023-06-19T06:17:12;98788.19;;;21.16;66.06
58668;BME280;59852;43.086;25.634;2023-06-19T06:19:37;98789.78;;;21.56;67.33
58668;BME280;59852;43.086;25.634;2023-06-19T06:22:04;98786.97;;;21.50;67.55
58668;BME280;59852;43.086;25.634;2023-06-19T06:24:29;98783.19;;;21.67;66.54
58668;BME280;59852;43.086;25.634;2023-06-19T06:26:54;98784.19;;;21.43;67.72
58668;BME280;59852;43.086;25.634;2023-06-19T06:29:20;98790.38;;;21.81;65.68
58668;BME280;59852;43.086;25.634;2023-06-19T06:31:45;98790.53;;;21.65;66.35
58668;BME280;59852;43.086;25.634;2023-06-19T06:34:11;98786.72;;;21.82;67.52
58668;BME280;59852;43.086;25.634;2023-06-19T06:36:37;98793.88;;;21.82;65.67
58668;BME280;59852;43.086;25.634;2023-06-19T06:39:03;98790.16;;;21.68;66.78
58668;BME280;59852;43.086;25.634;2023-06-19T06:41:28;98784.53;;;21.86;65.70
58668;BME280;59852;43.086;25.634;2023-06-19T06:43:53;98768.00;;;22.13;64.85
58668;BME280;59852;43.086;25.634;2023-06-19T06:46:20;98782.31;;;22.27;64.28
58668;BME280;59852;43.086;25.634;2023-06-19T06:48:46;98772.50;;;22.27;63.80
58668;BME280;59852;43.086;25.634;2023-06-19T06:51:11;98777.75;;;21.98;65.07
58668;BME280;59852;43.086;25.634;2023-06-19T06:53:36;98781.00;;;22.08;65.97
58668;BME280;59852;43.086;25.634;2023-06-19T06:56:02;98779.22;;;22.23;66.18
58668;BME280;59852;43.086;25.634;2023-06-19T06:58:28;98780.47;;;22.27;64.74
58668;BME280;59852;43.086;25.634;2023-06-19T07:00:53;98781.84;;;22.38;64.58
58668;BME280;59852;43.086;25.634;2023-06-19T07:03:19;98784.25;;;22.18;64.48
58668;BME280;59852;43.086;25.634;2023-06-19T07:05:44;98781.13;;;22.15;64.11
58668;BME280;59852;43.086;25.634;2023-06-19T07:08:09;98778.84;;;22.26;64.07
58668;BME280;59852;43.086;25.634;2023-06-19T07:10:35;98779.63;;;22.42;64.83
58668;BME280;59852;43.086;25.634;2023-06-19T07:13:00;98791.69;;;22.67;64.98
58668;BME280;59852;43.086;25.634;2023-06-19T07:15:25;98784.69;;;22.66;62.87
58668;BME280;59852;43.086;25.634;2023-06-19T07:17:52;98787.94;;;22.61;64.27
58668;BME280;59852;43.086;25.634;2023-06-19T07:20:17;98788.28;;;22.73;64.36
58668;BME280;59852;43.086;25.634;2023-06-19T07:22:43;98794.50;;;22.80;64.88
58668;BME280;59852;43.086;25.634;2023-06-19T07:25:09;98787.56;;;22.65;64.01
58668;BME280;59852;43.086;25.634;2023-06-19T07:27:35;98795.72;;;22.78;62.48
58668;BME280;59852;43.086;25.634;2023-06-19T07:30:01;98791.91;;;23.16;62.54
58668;BME280;59852;43.086;25.634;2023-06-19T07:32:26;98789.16;;;23.10;62.24
58668;BME280;59852;43.086;25.634;2023-06-19T07:34:52;98788.22;;;23.17;63.04
58668;BME280;59852;43.086;25.634;2023-06-19T07:37:18;98793.25;;;23.27;62.61
58668;BME280;59852;43.086;25.634;2023-06-19T07:39:44;98799.09;;;23.37;63.68
58668;BME280;59852;43.086;25.634;2023-06-19T07:42:09;98799.81;;;23.10;62.83
58668;BME280;59852;43.086;25.634;2023-06-19T07:44:35;98795.66;;;23.22;63.73
58668;BME280;59852;43.086;25.634;2023-06-19T07:47:01;98794.31;;;23.11;63.76
58668;BME280;59852;43.086;25.634;2023-06-19T07:49:26;98791.50;;;23.19;62.27
58668;BME280;59852;43.086;25.634;2023-06-19T07:51:51;98794.38;;;23.39;63.65
58668;BME280;59852;43.086;25.634;2023-06-19T07:54:17;98801.00;;;23.22;63.41
58668;BME280;59852;43.086;25.634;2023-06-19T07:56:42;98800.69;;;23.53;61.65
58668;BME280;59852;43.086;25.634;2023-06-19T07:59:07;98800.59;;;23.61;61.95
58668;BME280;59852;43.086;25.634;2023-06-19T08:01:33;98806.38;;;23.65;61.80
58668;BME280;59852;43.086;25.634;2023-06-19T08:03:58;98813.63;;;23.71;61.31
58668;BME280;59852;43.086;25.634;2023-06-19T08:06:23;98813.06;;;23.39;64.25
58668;BME280;59852;43.086;25.634;2023-06-19T08:08:49;98813.53;;;23.22;63.32
58668;BME280;59852;43.086;25.634;2023-06-19T08:11:14;98813.81;;;23.12;63.09
58668;BME280;59852;43.086;25.634;2023-06-19T08:13:39;98808.00;;;23.08;64.42
58668;BME280;59852;43.086;25.634;2023-06-19T08:16:05;98809.22;;;23.06;63.28
58668;BME280;59852;43.086;25.634;2023-06-19T08:18:31;98815.78;;;22.88;63.23
58668;BME280;59852;43.086;25.634;2023-06-19T08:20:56;98813.03;;;23.33;62.92
58668;BME280;59852;43.086;25.634;2023-06-19T08:23:21;98812.00;;;23.55;61.64
58668;BME280;59852;43.086;25.634;2023-06-19T08:25:47;98809.41;;;23.40;62.63
58668;BME280;59852;43.086;25.634;2023-06-19T08:28:12;98819.91;;;23.06;62.77
58668;BME280;59852;43.086;25.634;2023-06-19T08:30:37;98818.50;;;23.46;63.25
58668;BME280;59852;43.086;25.634;2023-06-19T08:33:03;98825.25;;;23.27;63.67
58668;BME280;59852;43.086;25.634;2023-06-19T08:35:28;98816.56;;;23.40;64.62
58668;BME280;59852;43.086;25.634;2023-06-19T08:37:53;98821.56;;;23.64;62.07
58668;BME280;59852;43.086;25.634;2023-06-19T08:40:19;98818.81;;;23.58;61.13
58668;BME280;59852;43.086;25.634;2023-06-19T08:42:45;98815.91;;;23.53;61.33
58668;BME280;59852;43.086;25.634;2023-06-19T08:45:11;98811.50;;;23.45;62.28
58668;BME280;59852;43.086;25.634;2023-06-19T08:47:36;98822.69;;;23.98;62.00
58668;BME280;59852;43.086;25.634;2023-06-19T08:50:02;98818.44;;;24.03;61.10
58668;BME280;59852;43.086;25.634;2023-06-19T08:52:28;98821.38;;;23.87;60.30
58668;BME280;59852;43.086;25.634;2023-06-19T08:54:53;98818.63;;;24.02;61.91
58668;BME280;59852;43.086;25.634;2023-06-19T08:57:18;98815.66;;;23.90;60.77
58668;BME280;59852;43.086;25.634;2023-06-19T08:59:50;98811.22;;;23.76;60.28
58668;BME280;59852;43.086;25.634;2023-06-19T09:02:16;98821.16;;;24.10;59.96
58668;BME280;59852;43.086;25.634;2023-06-19T09:04:41;98820.38;;;24.44;58.40
58668;BME280;59852;43.086;25.634;2023-06-19T09:07:07;98820.94;;;23.84;60.32
58668;BME280;59852;43.086;25.634;2023-06-19T09:09:33;98822.84;;;23.68;61.35
58668;BME280;59852;43.086;25.634;2023-06-19T09:16:58;98814.22;;;24.44;59.68
58668;BME280;59852;43.086;25.634;2023-06-19T09:19:24;98816.97;;;24.01;61.07
58668;BME280;59852;43.086;25.634;2023-06-19T09:21:49;98813.63;;;23.92;60.19
58668;BME280;59852;43.086;25.634;2023-06-19T09:24:14;98813.13;;;24.38;60.06
58668;BME280;59852;43.086;25.634;2023-06-19T09:26:40;98811.53;;;24.44;60.18
58668;BME280;59852;43.086;25.634;2023-06-19T09:31:37;98804.06;;;24.67;59.62
58668;BME280;59852;43.086;25.634;2023-06-19T09:34:04;98805.31;;;25.12;58.63
58668;BME280;59852;43.086;25.634;2023-06-19T09:36:30;98806.47;;;24.55;59.51
58668;BME280;59852;43.086;25.634;2023-06-19T09:38:56;98805.63;;;24.55;60.15
58668;BME280;59852;43.086;25.634;2023-06-19T09:41:22;98815.44;;;24.41;59.57
58668;BME280;59852;43.086;25.634;2023-06-19T09:43:49;98811.78;;;24.21;61.19
58668;BME280;59852;43.086;25.634;2023-06-19T09:46:15;98809.75;;;24.57;60.49
58668;BME280;59852;43.086;25.634;2023-06-19T09:48:43;98805.13;;;25.21;60.95
58668;BME280;59852;43.086;25.634;2023-06-19T09:51:09;98805.38;;;24.78;60.29
58668;BME280;59852;43.086;25.634;2023-06-19T09:53:36;98797.25;;;24.65;59.17
58668;BME280;59852;43.086;25.634;2023-06-19T09:56:01;98797.50;;;24.76;59.95
58668;BME280;59852;43.086;25.634;2023-06-19T09:58:27;98797.50;;;25.24;58.02
58668;BME280;59852;43.086;25.634;2023-06-19T10:00:53;98797.81;;;24.95;56.82
58668;BME280;59852;43.086;25.634;2023-06-19T10:03:20;98799.53;;;25.15;56.62
58668;BME280;59852;43.086;25.634;2023-06-19T10:05:45;98798.53;;;24.69;57.81
58668;BME280;59852;43.086;25.634;2023-06-19T10:08:11;98794.38;;;24.59;59.88
58668;BME280;59852;43.086;25.634;2023-06-19T10:10:37;98790.38;;;24.90;58.08
58668;BME280;59852;43.086;25.634;2023-06-19T10:13:14;98803.84;;;25.03;56.78
58668;BME280;59852;43.086;25.634;2023-06-19T10:15:40;98792.44;;;24.95;58.31
58668;BME280;59852;43.086;25.634;2023-06-19T10:18:06;98787.06;;;25.42;58.05
58668;BME280;59852;43.086;25.634;2023-06-19T10:20:36;98794.28;;;25.55;56.75
58668;BME280;59852;43.086;25.634;2023-06-19T10:23:04;98788.63;;;24.63;59.38
58668;BME280;59852;43.086;25.634;2023-06-19T10:25:31;98798.91;;;24.66;59.50
58668;BME280;59852;43.086;25.634;2023-06-19T10:27:58;98792.41;;;24.40;60.82
58668;BME280;59852;43.086;25.634;2023-06-19T10:30:24;98793.63;;;24.79;60.73
58668;BME280;59852;43.086;25.634;2023-06-19T10:32:49;98789.81;;;25.01;59.64
58668;BME280;59852;43.086;25.634;2023-06-19T10:35:15;98781.69;;;25.42;55.88
58668;BME280;59852;43.086;25.634;2023-06-19T10:37:41;98774.69;;;25.28;55.87
58668;BME280;59852;43.086;25.634;2023-06-19T10:40:07;98775.75;;;25.60;55.67
58668;BME280;59852;43.086;25.634;2023-06-19T10:42:42;98767.28;;;25.30;52.88
58668;BME280;59852;43.086;25.634;2023-06-19T10:45:08;98761.31;;;25.61;55.67
58668;BME280;59852;43.086;25.634;2023-06-19T10:47:34;98767.53;;;25.68;53.86
58668;BME280;59852;43.086;25.634;2023-06-19T10:50:00;98766.50;;;25.76;54.35
58668;BME280;59852;43.086;25.634;2023-06-19T10:52:27;98759.47;;;25.68;54.48
58668;BME280;59852;43.086;25.634;2023-06-19T10:54:53;98748.59;;;25.70;54.16
58668;BME280;59852;43.086;25.634;2023-06-19T10:57:26;98754.09;;;26.15;54.99
58668;BME280;59852;43.086;25.634;2023-06-19T10:59:51;98754.34;;;26.07;51.59
58668;BME280;59852;43.086;25.634;2023-06-19T11:02:17;98737.63;;;26.11;53.75
58668;BME280;59852;43.086;25.634;2023-06-19T11:04:43;98731.25;;;25.99;55.55
58668;BME280;59852;43.086;25.634;2023-06-19T11:07:08;98736.22;;;25.82;53.50
58668;BME280;59852;43.086;25.634;2023-06-19T11:09:34;98730.03;;;25.68;53.67
58668;BME280;59852;43.086;25.634;2023-06-19T11:11:59;98738.03;;;26.08;53.10
58668;BME280;59852;43.086;25.634;2023-06-19T11:14:28;98740.75;;;25.88;52.99
58668;BME280;59852;43.086;25.634;2023-06-19T11:16:54;98746.03;;;26.28;53.14
58668;BME280;59852;43.086;25.634;2023-06-19T11:19:20;98746.31;;;26.07;54.11
58668;BME280;59852;43.086;25.634;2023-06-19T11:21:47;98729.63;;;25.71;55.54
58668;BME280;59852;43.086;25.634;2023-06-19T11:24:14;98731.63;;;25.36;55.11
58668;BME280;59852;43.086;25.634;2023-06-19T11:26:40;98727.31;;;25.95;55.10
58668;BME280;59852;43.086;25.634;2023-06-19T11:31:43;98732.25;;;26.18;51.59
58668;BME280;59852;43.086;25.634;2023-06-19T11:34:09;98737.41;;;26.13;52.06
58668;BME280;59852;43.086;25.634;2023-06-19T11:36:38;98737.19;;;26.27;51.84
58668;BME280;59852;43.086;25.634;2023-06-19T11:39:03;98733.69;;;26.20;51.97
58668;BME280;59852;43.086;25.634;2023-06-19T11:41:31;98741.53;;;26.09;50.82
58668;BME280;59852;43.086;25.634;2023-06-19T11:44:00;98741.13;;;26.12;51.13
58668;BME280;59852;43.086;25.634;2023-06-19T11:46:29;98742.53;;;26.21;50.92
58668;BME280;59852;43.086;25.634;2023-06-19T11:48:55;98750.19;;;26.17;50.14
58668;BME280;59852;43.086;25.634;2023-06-19T11:51:21;98746.88;;;26.28;52.77
58668;BME280;59852;43.086;25.634;2023-06-19T11:53:46;98739.41;;;26.44;54.25
58668;BME280;59852;43.086;25.634;2023-06-19T11:56:12;98735.56;;;26.84;50.93
58668;BME280;59852;43.086;25.634;2023-06-19T11:58:37;98729.06;;;26.54;50.13
58668;BME280;59852;43.086;25.634;2023-06-19T12:01:03;98720.69;;;26.37;50.58
58668;BME280;59852;43.086;25.634;2023-06-19T12:03:28;98712.31;;;26.65;50.35
58668;BME280;59852;43.086;25.634;2023-06-19T12:05:53;98713.47;;;26.38;50.77
58668;BME280;59852;43.086;25.634;2023-06-19T12:08:19;98712.28;;;26.00;51.51
58668;BME280;59852;43.086;25.634;2023-06-19T12:10:44;98699.69;;;26.08;52.88
58668;BME280;59852;43.086;25.634;2023-06-19T12:13:09;98690.78;;;26.14;50.42
58668;BME280;59852;43.086;25.634;2023-06-19T12:15:35;98688.56;;;26.04;49.56
58668;BME280;59852;43.086;25.634;2023-06-19T12:18:00;98691.69;;;25.81;49.55
58668;BME280;59852;43.086;25.634;2023-06-19T12:20:25;98688.28;;;26.45;50.63
58668;BME280;59852;43.086;25.634;2023-06-19T12:22:51;98670.31;;;26.46;49.45
58668;BME280;59852;43.086;25.634;2023-06-19T12:25:16;98685.25;;;26.02;50.19
58668;BME280;59852;43.086;25.634;2023-06-19T12:27:41;98698.09;;;25.87;49.52
58668;BME280;59852;43.086;25.634;2023-06-19T12:30:07;98702.41;;;25.48;51.05
58668;BME280;59852;43.086;25.634;2023-06-19T12:32:33;98696.44;;;25.59;50.80
58668;BME280;59852;43.086;25.634;2023-06-19T12:34:58;98687.88;;;26.28;49.21
58668;BME280;59852;43.086;25.634;2023-06-19T12:37:23;98684.16;;;26.36;49.18
58668;BME280;59852;43.086;25.634;2023-06-19T12:39:52;98681.81;;;26.53;50.06
58668;BME280;59852;43.086;25.634;2023-06-19T12:42:17;98669.34;;;26.72;51.71
58668;BME280;59852;43.086;25.634;2023-06-19T12:44:43;98661.06;;;26.35;50.05
58668;BME280;59852;43.086;25.634;2023-06-19T12:47:11;98666.81;;;26.45;49.76
58668;BME280;59852;43.086;25.634;2023-06-19T12:49:37;98675.72;;;26.26;50.69
58668;BME280;59852;43.086;25.634;2023-06-19T12:52:02;98658.56;;;26.34;51.24
58668;BME280;59852;43.086;25.634;2023-06-19T12:54:28;98662.28;;;26.46;50.04